sensor_id;sensor_type;location;lat;lon;timestamp;P1;durP1;ratioP1;P2;durP2;ratioP2
69906;SDS011;57190;47.918;8.112;2024-02-23T00:00:53;0.40;;;0.40;;
69906;SDS011;57190;47.918;8.112;2024-02-23T00:03:19;0.50;;;0.50;;
69906;SDS011;57190;47.918;8.112;2024-02-23T00:05:44;0.40;;;0.40;;
69906;SDS011;57190;47.918;8.112;2024-02-23T00:08:11;0.43;;;0.43;;
69906;SDS011;57190;47.918;8.112;2024-02-23T00:10:37;0.50;;;0.50;;
69906;SDS011;57190;47.918;8.112;2024-02-23T00:13:03;0.40;;;0.40;;
69906;SDS011;57190;47.918;8.112;2024-02-23T00:15:28;0.60;;;0.60;;
69906;SDS011;57190;47.918;8.112;2024-02-23T00:17:55;0.40;;;0.40;;
69906;SDS011;57190;47.918;8.112;2024-02-23T00:20:21;0.40;;;0.40;;
69906;SDS011;57190;47.918;8.112;2024-02-23T00:22:46;0.50;;;0.50;;
69906;SDS011;57190;47.918;8.112;2024-02-23T00:25:12;0.43;;;0.43;;
69906;SDS011;57190;47.918;8.112;2024-02-23T00:27:39;0.50;;;0.50;;
69906;SDS011;57190;47.918;8.112;2024-02-23T00:30:07;0.53;;;0.53;;
69906;SDS011;57190;47.918;8.112;2024-02-23T00:32:33;0.57;;;0.57;;
69906;SDS011;57190;47.918;8.112;2024-02-23T00:34:59;1.23;;;0.40;;
69906;SDS011;57190;47.918;8.112;2024-02-23T00:37:24;0.60;;;0.60;;
69906;SDS011;57190;47.918;8.112;2024-02-23T00:39:50;0.40;;;0.40;;
69906;SDS011;57190;47.918;8.112;2024-02-23T00:42:16;0.70;;;0.70;;
69906;SDS011;57190;47.918;8.112;2024-02-23T00:44:41;0.50;;;0.50;;
69906;SDS011;57190;47.918;8.112;2024-02-23T00:47:07;0.50;;;0.50;;
69906;SDS011;57190;47.918;8.112;2024-02-23T00:49:34;1.37;;;0.60;;
69906;SDS011;57190;47.918;8.112;2024-02-23T00:52:00;0.60;;;0.60;;
69906;SDS011;57190;47.918;8.112;2024-02-23T00:54:25;0.50;;;0.50;;
69906;SDS011;57190;47.918;8.112;2024-02-23T00:56:51;0.50;;;0.50;;
69906;SDS011;57190;47.918;8.112;2024-02-23T00:59:18;0.50;;;0.40;;
69906;SDS011;57190;47.918;8.112;2024-02-23T01:01:44;0.87;;;0.50;;
69906;SDS011;57190;47.918;8.112;2024-02-23T01:04:10;0.40;;;0.40;;
69906;SDS011;57190;47.918;8.112;2024-02-23T01:06:36;1.50;;;0.60;;
69906;SDS011;57190;47.918;8.112;2024-02-23T01:09:02;1.17;;;0.70;;
69906;SDS011;57190;47.918;8.112;2024-02-23T01:11:29;0.50;;;0.50;;
69906;SDS011;57190;47.918;8.112;2024-02-23T01:13:56;0.73;;;0.70;;
69906;SDS011;57190;47.918;8.112;2024-02-23T01:16:22;2.33;;;0.80;;
69906;SDS011;57190;47.918;8.112;2024-02-23T01:18:47;1.27;;;0.70;;
69906;SDS011;57190;47.918;8.112;2024-02-23T01:21:13;0.87;;;0.60;;
69906;SDS011;57190;47.918;8.112;2024-02-23T01:23:39;0.70;;;0.63;;
69906;SDS011;57190;47.918;8.112;2024-02-23T01:26:04;1.13;;;0.50;;
69906;SDS011;57190;47.918;8.112;2024-02-23T01:28:29;0.70;;;0.60;;
69906;SDS011;57190;47.918;8.112;2024-02-23T01:30:56;1.97;;;0.77;;
69906;SDS011;57190;47.918;8.112;2024-02-23T01:33:22;0.70;;;0.70;;
69906;SDS011;57190;47.918;8.112;2024-02-23T01:35:48;0.60;;;0.60;;
69906;SDS011;57190;47.918;8.112;2024-02-23T01:38:14;1.97;;;0.90;;
69906;SDS011;57190;47.918;8.112;2024-02-23T01:40:46;1.13;;;0.63;;
69906;SDS011;57190;47.918;8.112;2024-02-23T01:43:12;1.17;;;0.80;;
69906;SDS011;57190;47.918;8.112;2024-02-23T01:45:38;0.80;;;0.80;;
69906;SDS011;57190;47.918;8.112;2024-02-23T01:48:03;1.93;;;0.67;;
69906;SDS011;57190;47.918;8.112;2024-02-23T01:50:29;1.63;;;0.73;;
69906;SDS011;57190;47.918;8.112;2024-02-23T01:52:56;0.70;;;0.70;;
69906;SDS011;57190;47.918;8.112;2024-02-23T01:55:25;1.37;;;0.70;;
69906;SDS011;57190;47.918;8.112;2024-02-23T01:57:51;1.37;;;0.80;;
69906;SDS011;57190;47.918;8.112;2024-02-23T02:00:18;0.80;;;0.80;;
69906;SDS011;57190;47.918;8.112;2024-02-23T02:02:46;0.77;;;0.67;;
69906;SDS011;57190;47.918;8.112;2024-02-23T02:05:13;0.90;;;0.67;;
69906;SDS011;57190;47.918;8.112;2024-02-23T02:07:40;0.90;;;0.80;;
69906;SDS011;57190;47.918;8.112;2024-02-23T02:10:07;1.73;;;0.70;;
69906;SDS011;57190;47.918;8.112;2024-02-23T02:12:34;1.70;;;0.60;;
69906;SDS011;57190;47.918;8.112;2024-02-23T02:14:59;1.40;;;0.80;;
69906;SDS011;57190;47.918;8.112;2024-02-23T02:17:27;0.60;;;0.60;;
69906;SDS011;57190;47.918;8.112;2024-02-23T02:19:53;1.33;;;0.87;;
69906;SDS011;57190;47.918;8.112;2024-02-23T02:22:18;0.80;;;0.80;;
69906;SDS011;57190;47.918;8.112;2024-02-23T02:24:44;0.60;;;0.60;;
69906;SDS011;57190;47.918;8.112;2024-02-23T02:27:11;0.70;;;0.63;;
69906;SDS011;57190;47.918;8.112;2024-02-23T02:29:39;1.77;;;0.73;;
69906;SDS011;57190;47.918;8.112;2024-02-23T02:32:04;0.60;;;0.60;;
69906;SDS011;57190;47.918;8.112;2024-02-23T02:34:30;1.17;;;0.63;;
69906;SDS011;57190;47.918;8.112;2024-02-23T02:36:56;0.80;;;0.80;;
69906;SDS011;57190;47.918;8.112;2024-02-23T02:39:21;0.73;;;0.70;;
69906;SDS011;57190;47.918;8.112;2024-02-23T02:41:50;1.33;;;0.80;;
69906;SDS011;57190;47.918;8.112;2024-02-23T02:44:15;1.47;;;0.80;;
69906;SDS011;57190;47.918;8.112;2024-02-23T02:46:41;0.70;;;0.70;;
69906;SDS011;57190;47.918;8.112;2024-02-23T02:49:07;0.60;;;0.60;;
69906;SDS011;57190;47.918;8.112;2024-02-23T02:51:33;2.77;;;0.87;;
69906;SDS011;57190;47.918;8.112;2024-02-23T02:53:58;2.23;;;0.90;;
69906;SDS011;57190;47.918;8.112;2024-02-23T02:56:24;1.03;;;0.70;;
69906;SDS011;57190;47.918;8.112;2024-02-23T02:58:49;1.73;;;0.90;;
69906;SDS011;57190;47.918;8.112;2024-02-23T03:01:15;1.57;;;0.70;;
69906;SDS011;57190;47.918;8.112;2024-02-23T03:03:40;1.87;;;0.87;;
69906;SDS011;57190;47.918;8.112;2024-02-23T03:06:05;1.47;;;0.80;;
69906;SDS011;57190;47.918;8.112;2024-02-23T03:08:31;1.90;;;1.30;;
69906;SDS011;57190;47.918;8.112;2024-02-23T03:10:57;1.40;;;0.90;;
69906;SDS011;57190;47.918;8.112;2024-02-23T03:13:22;0.77;;;0.70;;
69906;SDS011;57190;47.918;8.112;2024-02-23T03:15:48;0.70;;;0.70;;
69906;SDS011;57190;47.918;8.112;2024-02-23T03:18:13;2.33;;;0.77;;
69906;SDS011;57190;47.918;8.112;2024-02-23T03:20:40;0.93;;;0.77;;
69906;SDS011;57190;47.918;8.112;2024-02-23T03:23:06;1.30;;;0.80;;
69906;SDS011;57190;47.918;8.112;2024-02-23T03:25:32;1.13;;;0.60;;
69906;SDS011;57190;47.918;8.112;2024-02-23T03:27:58;1.03;;;0.70;;
69906;SDS011;57190;47.918;8.112;2024-02-23T03:30:23;1.17;;;0.90;;
69906;SDS011;57190;47.918;8.112;2024-02-23T03:32:49;3.80;;;0.83;;
69906;SDS011;57190;47.918;8.112;2024-02-23T03:35:14;1.00;;;0.73;;
69906;SDS011;57190;47.918;8.112;2024-02-23T03:37:40;0.80;;;0.80;;
69906;SDS011;57190;47.918;8.112;2024-02-23T03:40:06;3.10;;;1.20;;
69906;SDS011;57190;47.918;8.112;2024-02-23T03:42:32;2.27;;;1.00;;
69906;SDS011;57190;47.918;8.112;2024-02-23T03:44:57;1.87;;;0.70;;
69906;SDS011;57190;47.918;8.112;2024-02-23T03:47:23;0.90;;;0.60;;
69906;SDS011;57190;47.918;8.112;2024-02-23T03:49:48;1.23;;;0.80;;
69906;SDS011;57190;47.918;8.112;2024-02-23T03:52:14;1.67;;;0.60;;
69906;SDS011;57190;47.918;8.112;2024-02-23T03:54:39;1.10;;;0.80;;
69906;SDS011;57190;47.918;8.112;2024-02-23T03:57:05;2.67;;;0.70;;
69906;SDS011;57190;47.918;8.112;2024-02-23T03:59:30;1.57;;;0.90;;
69906;SDS011;57190;47.918;8.112;2024-02-23T04:01:56;1.30;;;1.10;;
69906;SDS011;57190;47.918;8.112;2024-02-23T04:04:21;1.63;;;0.73;;
69906;SDS011;57190;47.918;8.112;2024-02-23T04:06:47;1.83;;;0.90;;
69906;SDS011;57190;47.918;8.112;2024-02-23T04:09:12;2.03;;;0.83;;
69906;SDS011;57190;47.918;8.112;2024-02-23T04:11:38;1.43;;;0.80;;
69906;SDS011;57190;47.918;8.112;2024-02-23T04:14:04;1.20;;;0.90;;
69906;SDS011;57190;47.918;8.112;2024-02-23T04:16:32;0.93;;;0.80;;
69906;SDS011;57190;47.918;8.112;2024-02-23T04:18:57;2.93;;;0.93;;
69906;SDS011;57190;47.918;8.112;2024-02-23T04:21:24;1.47;;;0.90;;
69906;SDS011;57190;47.918;8.112;2024-02-23T04:23:50;2.37;;;1.17;;
69906;SDS011;57190;47.918;8.112;2024-02-23T04:26:15;1.20;;;1.00;;
69906;SDS011;57190;47.918;8.112;2024-02-23T04:28:41;1.67;;;1.10;;
69906;SDS011;57190;47.918;8.112;2024-02-23T04:31:10;1.83;;;0.80;;
69906;SDS011;57190;47.918;8.112;2024-02-23T04:33:36;1.60;;;1.00;;
69906;SDS011;57190;47.918;8.112;2024-02-23T04:36:03;1.80;;;1.00;;
69906;SDS011;57190;47.918;8.112;2024-02-23T04:38:29;1.43;;;0.70;;
69906;SDS011;57190;47.918;8.112;2024-02-23T04:40:56;0.90;;;0.87;;
69906;SDS011;57190;47.918;8.112;2024-02-23T04:43:22;2.83;;;0.90;;
69906;SDS011;57190;47.918;8.112;2024-02-23T04:45:48;2.13;;;0.90;;
69906;SDS011;57190;47.918;8.112;2024-02-23T04:48:14;1.53;;;0.80;;
69906;SDS011;57190;47.918;8.112;2024-02-23T04:50:39;2.17;;;0.70;;
69906;SDS011;57190;47.918;8.112;2024-02-23T04:53:05;1.80;;;0.70;;
69906;SDS011;57190;47.918;8.112;2024-02-23T04:55:30;3.13;;;1.10;;
69906;SDS011;57190;47.918;8.112;2024-02-23T04:57:56;2.03;;;0.90;;
69906;SDS011;57190;47.918;8.112;2024-02-23T05:00:21;1.73;;;0.90;;
69906;SDS011;57190;47.918;8.112;2024-02-23T05:02:47;2.33;;;0.80;;
69906;SDS011;57190;47.918;8.112;2024-02-23T05:05:12;1.43;;;1.10;;
69906;SDS011;57190;47.918;8.112;2024-02-23T05:07:38;2.83;;;0.90;;
69906;SDS011;57190;47.918;8.112;2024-02-23T05:10:03;1.53;;;0.80;;
69906;SDS011;57190;47.918;8.112;2024-02-23T05:12:30;2.00;;;1.07;;
69906;SDS011;57190;47.918;8.112;2024-02-23T05:14:55;1.97;;;0.90;;
69906;SDS011;57190;47.918;8.112;2024-02-23T05:17:21;1.67;;;0.90;;
69906;SDS011;57190;47.918;8.112;2024-02-23T05:19:46;1.23;;;0.80;;
69906;SDS011;57190;47.918;8.112;2024-02-23T05:22:12;3.63;;;0.90;;
69906;SDS011;57190;47.918;8.112;2024-02-23T05:24:37;3.13;;;0.97;;
69906;SDS011;57190;47.918;8.112;2024-02-23T05:27:03;2.53;;;1.00;;
69906;SDS011;57190;47.918;8.112;2024-02-23T05:29:29;2.47;;;1.53;;
69906;SDS011;57190;47.918;8.112;2024-02-23T05:31:54;2.00;;;0.97;;
69906;SDS011;57190;47.918;8.112;2024-02-23T05:34:20;3.57;;;0.97;;
69906;SDS011;57190;47.918;8.112;2024-02-23T05:36:46;2.73;;;1.03;;
69906;SDS011;57190;47.918;8.112;2024-02-23T05:39:13;1.93;;;1.03;;
69906;SDS011;57190;47.918;8.112;2024-02-23T05:41:40;2.90;;;1.07;;
69906;SDS011;57190;47.918;8.112;2024-02-23T05:44:09;2.00;;;1.00;;
69906;SDS011;57190;47.918;8.112;2024-02-23T05:46:35;1.67;;;0.83;;
69906;SDS011;57190;47.918;8.112;2024-02-23T05:49:02;2.53;;;0.90;;
69906;SDS011;57190;47.918;8.112;2024-02-23T05:51:29;2.63;;;0.90;;
69906;SDS011;57190;47.918;8.112;2024-02-23T05:53:55;1.10;;;1.00;;
69906;SDS011;57190;47.918;8.112;2024-02-23T05:56:20;2.10;;;0.80;;
69906;SDS011;57190;47.918;8.112;2024-02-23T05:58:46;2.03;;;0.93;;
69906;SDS011;57190;47.918;8.112;2024-02-23T06:01:12;6.70;;;1.10;;
69906;SDS011;57190;47.918;8.112;2024-02-23T06:03:37;2.47;;;1.20;;
69906;SDS011;57190;47.918;8.112;2024-02-23T06:06:07;2.27;;;0.90;;
69906;SDS011;57190;47.918;8.112;2024-02-23T06:08:33;1.47;;;1.10;;
69906;SDS011;57190;47.918;8.112;2024-02-23T06:10:59;2.47;;;1.47;;
69906;SDS011;57190;47.918;8.112;2024-02-23T06:13:25;1.37;;;1.27;;
69906;SDS011;57190;47.918;8.112;2024-02-23T06:15:50;2.00;;;0.90;;
69906;SDS011;57190;47.918;8.112;2024-02-23T06:18:16;2.33;;;0.97;;
69906;SDS011;57190;47.918;8.112;2024-02-23T06:20:42;2.83;;;1.17;;
69906;SDS011;57190;47.918;8.112;2024-02-23T06:23:07;3.87;;;1.23;;
69906;SDS011;57190;47.918;8.112;2024-02-23T06:25:32;3.97;;;1.33;;
69906;SDS011;57190;47.918;8.112;2024-02-23T06:28:01;3.03;;;1.40;;
69906;SDS011;57190;47.918;8.112;2024-02-23T06:30:26;2.13;;;1.23;;
69906;SDS011;57190;47.918;8.112;2024-02-23T06:32:52;3.20;;;0.93;;
69906;SDS011;57190;47.918;8.112;2024-02-23T06:35:17;3.83;;;1.33;;
69906;SDS011;57190;47.918;8.112;2024-02-23T06:37:43;1.73;;;1.20;;
69906;SDS011;57190;47.918;8.112;2024-02-23T06:40:09;3.10;;;1.10;;
69906;SDS011;57190;47.918;8.112;2024-02-23T06:42:35;3.93;;;1.10;;
69906;SDS011;57190;47.918;8.112;2024-02-23T06:45:00;3.50;;;1.27;;
69906;SDS011;57190;47.918;8.112;2024-02-23T06:47:26;6.07;;;1.33;;
69906;SDS011;57190;47.918;8.112;2024-02-23T06:49:51;3.53;;;1.00;;
69906;SDS011;57190;47.918;8.112;2024-02-23T06:52:17;3.77;;;1.17;;
69906;SDS011;57190;47.918;8.112;2024-02-23T06:54:43;4.00;;;1.23;;
69906;SDS011;57190;47.918;8.112;2024-02-23T06:57:08;2.53;;;1.20;;
69906;SDS011;57190;47.918;8.112;2024-02-23T06:59:34;2.23;;;0.93;;
69906;SDS011;57190;47.918;8.112;2024-02-23T07:01:59;4.63;;;1.23;;
69906;SDS011;57190;47.918;8.112;2024-02-23T07:04:24;2.57;;;1.10;;
69906;SDS011;57190;47.918;8.112;2024-02-23T07:06:50;1.70;;;1.23;;
69906;SDS011;57190;47.918;8.112;2024-02-23T07:09:16;4.43;;;1.33;;
69906;SDS011;57190;47.918;8.112;2024-02-23T07:11:41;3.93;;;1.40;;
69906;SDS011;57190;47.918;8.112;2024-02-23T07:14:10;2.97;;;1.07;;
69906;SDS011;57190;47.918;8.112;2024-02-23T07:16:38;5.00;;;1.40;;
69906;SDS011;57190;47.918;8.112;2024-02-23T07:19:07;2.57;;;1.10;;
69906;SDS011;57190;47.918;8.112;2024-02-23T07:21:33;5.33;;;1.57;;
69906;SDS011;57190;47.918;8.112;2024-02-23T07:23:59;4.03;;;1.20;;
69906;SDS011;57190;47.918;8.112;2024-02-23T07:26:25;3.53;;;1.30;;
69906;SDS011;57190;47.918;8.112;2024-02-23T07:28:50;2.60;;;1.10;;
69906;SDS011;57190;47.918;8.112;2024-02-23T07:31:15;2.80;;;1.03;;
69906;SDS011;57190;47.918;8.112;2024-02-23T07:33:42;3.07;;;1.10;;
69906;SDS011;57190;47.918;8.112;2024-02-23T07:36:13;3.00;;;0.90;;
69906;SDS011;57190;47.918;8.112;2024-02-23T07:38:39;2.23;;;0.90;;
69906;SDS011;57190;47.918;8.112;2024-02-23T07:41:05;3.73;;;1.40;;
69906;SDS011;57190;47.918;8.112;2024-02-23T07:43:30;4.03;;;1.10;;
69906;SDS011;57190;47.918;8.112;2024-02-23T07:45:56;2.90;;;1.20;;
69906;SDS011;57190;47.918;8.112;2024-02-23T07:48:21;3.67;;;1.43;;
69906;SDS011;57190;47.918;8.112;2024-02-23T07:50:47;3.13;;;1.20;;
69906;SDS011;57190;47.918;8.112;2024-02-23T07:53:12;2.13;;;1.40;;
69906;SDS011;57190;47.918;8.112;2024-02-23T07:55:38;4.10;;;1.10;;
69906;SDS011;57190;47.918;8.112;2024-02-23T07:58:03;5.60;;;1.33;;
69906;SDS011;57190;47.918;8.112;2024-02-23T08:00:29;4.07;;;1.20;;
69906;SDS011;57190;47.918;8.112;2024-02-23T08:02:54;4.67;;;1.27;;
69906;SDS011;57190;47.918;8.112;2024-02-23T08:05:24;3.90;;;1.30;;
69906;SDS011;57190;47.918;8.112;2024-02-23T08:07:49;2.37;;;1.00;;
69906;SDS011;57190;47.918;8.112;2024-02-23T08:10:15;2.70;;;1.17;;
69906;SDS011;57190;47.918;8.112;2024-02-23T08:12:41;2.50;;;1.10;;
69906;SDS011;57190;47.918;8.112;2024-02-23T08:15:06;2.83;;;1.52;;
69906;SDS011;57190;47.918;8.112;2024-02-23T08:17:32;3.30;;;1.30;;
69906;SDS011;57190;47.918;8.112;2024-02-23T08:19:58;3.65;;;1.40;;
69906;SDS011;57190;47.918;8.112;2024-02-23T08:22:23;1.77;;;0.95;;
69906;SDS011;57190;47.918;8.112;2024-02-23T08:24:49;5.25;;;2.17;;
69906;SDS011;57190;47.918;8.112;2024-02-23T08:27:14;2.45;;;1.38;;
69906;SDS011;57190;47.918;8.112;2024-02-23T08:29:40;2.20;;;1.30;;
69906;SDS011;57190;47.918;8.112;2024-02-23T08:32:06;1.55;;;1.00;;
69906;SDS011;57190;47.918;8.112;2024-02-23T08:34:32;4.07;;;1.75;;
69906;SDS011;57190;47.918;8.112;2024-02-23T08:36:59;1.98;;;1.08;;
69906;SDS011;57190;47.918;8.112;2024-02-23T08:39:25;1.77;;;1.30;;
69906;SDS011;57190;47.918;8.112;2024-02-23T08:41:51;2.33;;;1.63;;
69906;SDS011;57190;47.918;8.112;2024-02-23T08:44:18;2.00;;;1.25;;
69906;SDS011;57190;47.918;8.112;2024-02-23T08:46:43;2.78;;;1.65;;
69906;SDS011;57190;47.918;8.112;2024-02-23T08:49:08;3.03;;;1.35;;
69906;SDS011;57190;47.918;8.112;2024-02-23T08:51:34;2.58;;;1.65;;
69906;SDS011;57190;47.918;8.112;2024-02-23T08:53:59;3.10;;;1.50;;
69906;SDS011;57190;47.918;8.112;2024-02-23T08:56:29;2.45;;;1.58;;
69906;SDS011;57190;47.918;8.112;2024-02-23T08:58:55;2.13;;;1.15;;
69906;SDS011;57190;47.918;8.112;2024-02-23T09:01:21;2.05;;;1.30;;
69906;SDS011;57190;47.918;8.112;2024-02-23T09:03:46;2.90;;;1.70;;
69906;SDS011;57190;47.918;8.112;2024-02-23T09:06:12;2.17;;;1.48;;
69906;SDS011;57190;47.918;8.112;2024-02-23T09:08:38;2.15;;;1.55;;
69906;SDS011;57190;47.918;8.112;2024-02-23T09:11:03;2.22;;;1.27;;
69906;SDS011;57190;47.918;8.112;2024-02-23T09:13:29;3.40;;;1.38;;
69906;SDS011;57190;47.918;8.112;2024-02-23T09:15:55;2.08;;;1.33;;
69906;SDS011;57190;47.918;8.112;2024-02-23T09:18:20;2.42;;;1.50;;
69906;SDS011;57190;47.918;8.112;2024-02-23T09:20:46;2.83;;;1.48;;
69906;SDS011;57190;47.918;8.112;2024-02-23T09:23:11;4.13;;;2.13;;
69906;SDS011;57190;47.918;8.112;2024-02-23T09:25:37;2.00;;;1.25;;
69906;SDS011;57190;47.918;8.112;2024-02-23T09:28:04;3.17;;;1.80;;
69906;SDS011;57190;47.918;8.112;2024-02-23T09:30:30;3.20;;;1.38;;
69906;SDS011;57190;47.918;8.112;2024-02-23T09:32:55;3.33;;;1.55;;
69906;SDS011;57190;47.918;8.112;2024-02-23T09:35:21;4.15;;;1.83;;
69906;SDS011;57190;47.918;8.112;2024-02-23T09:37:46;2.60;;;1.27;;
69906;SDS011;57190;47.918;8.112;2024-02-23T09:40:12;2.85;;;1.17;;
69906;SDS011;57190;47.918;8.112;2024-02-23T09:42:38;2.78;;;1.25;;
69906;SDS011;57190;47.918;8.112;2024-02-23T09:45:04;4.90;;;1.73;;
69906;SDS011;57190;47.918;8.112;2024-02-23T09:47:30;4.03;;;1.58;;
69906;SDS011;57190;47.918;8.112;2024-02-23T09:49:56;3.30;;;1.20;;
69906;SDS011;57190;47.918;8.112;2024-02-23T09:52:22;4.22;;;1.50;;
69906;SDS011;57190;47.918;8.112;2024-02-23T09:54:48;4.10;;;1.60;;
69906;SDS011;57190;47.918;8.112;2024-02-23T09:57:15;3.63;;;1.35;;
69906;SDS011;57190;47.918;8.112;2024-02-23T09:59:42;3.28;;;1.45;;
69906;SDS011;57190;47.918;8.112;2024-02-23T10:02:08;3.95;;;1.40;;
69906;SDS011;57190;47.918;8.112;2024-02-23T10:04:40;4.22;;;1.30;;
69906;SDS011;57190;47.918;8.112;2024-02-23T10:07:08;3.65;;;1.60;;
69906;SDS011;57190;47.918;8.112;2024-02-23T10:09:34;3.15;;;1.42;;
69906;SDS011;57190;47.918;8.112;2024-02-23T10:12:01;5.20;;;1.77;;
69906;SDS011;57190;47.918;8.112;2024-02-23T10:14:27;2.78;;;1.48;;
69906;SDS011;57190;47.918;8.112;2024-02-23T10:16:53;3.15;;;1.30;;
69906;SDS011;57190;47.918;8.112;2024-02-23T10:19:20;4.63;;;1.40;;
69906;SDS011;57190;47.918;8.112;2024-02-23T10:21:46;3.30;;;1.50;;
69906;SDS011;57190;47.918;8.112;2024-02-23T10:24:12;2.25;;;1.35;;
69906;SDS011;57190;47.918;8.112;2024-02-23T10:26:37;4.93;;;1.55;;
69906;SDS011;57190;47.918;8.112;2024-02-23T10:29:03;3.05;;;1.38;;
69906;SDS011;57190;47.918;8.112;2024-02-23T10:31:30;4.00;;;1.67;;
69906;SDS011;57190;47.918;8.112;2024-02-23T10:33:59;2.92;;;1.20;;
69906;SDS011;57190;47.918;8.112;2024-02-23T10:36:29;4.40;;;1.48;;
69906;SDS011;57190;47.918;8.112;2024-02-23T10:38:58;5.05;;;1.30;;
69906;SDS011;57190;47.918;8.112;2024-02-23T10:41:28;3.17;;;1.38;;
69906;SDS011;57190;47.918;8.112;2024-02-23T10:44:00;4.70;;;1.30;;
69906;SDS011;57190;47.918;8.112;2024-02-23T10:46:28;3.38;;;1.50;;
69906;SDS011;57190;47.918;8.112;2024-02-23T10:48:56;2.40;;;1.20;;
69906;SDS011;57190;47.918;8.112;2024-02-23T10:51:24;4.32;;;1.30;;
69906;SDS011;57190;47.918;8.112;2024-02-23T10:53:50;4.90;;;1.30;;
69906;SDS011;57190;47.918;8.112;2024-02-23T10:56:17;3.03;;;1.30;;
69906;SDS011;57190;47.918;8.112;2024-02-23T10:58:47;3.03;;;1.30;;
69906;SDS011;57190;47.918;8.112;2024-02-23T11:01:13;3.90;;;1.30;;
69906;SDS011;57190;47.918;8.112;2024-02-23T11:03:41;2.30;;;1.13;;
69906;SDS011;57190;47.918;8.112;2024-02-23T11:06:09;3.97;;;1.38;;
69906;SDS011;57190;47.918;8.112;2024-02-23T11:08:35;2.08;;;1.02;;
69906;SDS011;57190;47.918;8.112;2024-02-23T11:11:08;3.17;;;1.20;;
69906;SDS011;57190;47.918;8.112;2024-02-23T11:13:35;2.88;;;1.05;;
69906;SDS011;57190;47.918;8.112;2024-02-23T11:16:02;2.10;;;1.35;;
69906;SDS011;57190;47.918;8.112;2024-02-23T11:18:28;3.00;;;1.25;;
69906;SDS011;57190;47.918;8.112;2024-02-23T11:20:56;3.10;;;1.40;;
69906;SDS011;57190;47.918;8.112;2024-02-23T11:23:24;2.28;;;1.00;;
69906;SDS011;57190;47.918;8.112;2024-02-23T11:26:04;2.75;;;1.00;;
69906;SDS011;57190;47.918;8.112;2024-02-23T11:28:31;2.25;;;0.80;;
69906;SDS011;57190;47.918;8.112;2024-02-23T11:30:57;1.27;;;0.90;;
69906;SDS011;57190;47.918;8.112;2024-02-23T11:33:27;1.85;;;1.02;;
69906;SDS011;57190;47.918;8.112;2024-02-23T11:35:53;4.28;;;1.00;;
69906;SDS011;57190;47.918;8.112;2024-02-23T11:38:30;2.92;;;1.80;;
69906;SDS011;57190;47.918;8.112;2024-02-23T11:40:57;2.45;;;0.70;;
69906;SDS011;57190;47.918;8.112;2024-02-23T11:43:22;2.88;;;1.58;;
69906;SDS011;57190;47.918;8.112;2024-02-23T11:45:48;2.53;;;1.05;;
69906;SDS011;57190;47.918;8.112;2024-02-23T11:48:13;2.40;;;1.10;;
69906;SDS011;57190;47.918;8.112;2024-02-23T11:50:39;4.20;;;1.10;;
69906;SDS011;57190;47.918;8.112;2024-02-23T11:53:04;3.33;;;0.90;;
69906;SDS011;57190;47.918;8.112;2024-02-23T11:55:30;2.05;;;0.90;;
69906;SDS011;57190;47.918;8.112;2024-02-23T11:57:55;1.30;;;0.55;;
69906;SDS011;57190;47.918;8.112;2024-02-23T12:00:24;2.05;;;0.90;;
69906;SDS011;57190;47.918;8.112;2024-02-23T12:02:50;2.08;;;0.90;;
69906;SDS011;57190;47.918;8.112;2024-02-23T12:05:16;2.10;;;0.70;;
69906;SDS011;57190;47.918;8.112;2024-02-23T12:07:41;0.90;;;0.90;;
69906;SDS011;57190;47.918;8.112;2024-02-23T12:10:07;1.58;;;0.70;;
69906;SDS011;57190;47.918;8.112;2024-02-23T12:12:33;1.40;;;0.80;;
69906;SDS011;57190;47.918;8.112;2024-02-23T12:14:59;2.15;;;0.95;;
69906;SDS011;57190;47.918;8.112;2024-02-23T12:17:25;3.30;;;1.10;;
69906;SDS011;57190;47.918;8.112;2024-02-23T12:20:00;2.00;;;0.93;;
69906;SDS011;57190;47.918;8.112;2024-02-23T12:22:26;1.67;;;0.82;;
69906;SDS011;57190;47.918;8.112;2024-02-23T12:24:52;2.28;;;1.20;;
69906;SDS011;57190;47.918;8.112;2024-02-23T12:27:17;1.40;;;0.83;;
69906;SDS011;57190;47.918;8.112;2024-02-23T12:29:52;3.40;;;1.23;;
69906;SDS011;57190;47.918;8.112;2024-02-23T12:32:19;2.23;;;1.23;;
69906;SDS011;57190;47.918;8.112;2024-02-23T12:34:48;1.77;;;0.80;;
69906;SDS011;57190;47.918;8.112;2024-02-23T12:37:14;2.23;;;1.03;;
69906;SDS011;57190;47.918;8.112;2024-02-23T12:39:41;2.27;;;0.93;;
69906;SDS011;57190;47.918;8.112;2024-02-23T12:42:07;3.40;;;0.80;;
69906;SDS011;57190;47.918;8.112;2024-02-23T12:44:33;3.83;;;0.90;;
69906;SDS011;57190;47.918;8.112;2024-02-23T12:46:58;4.37;;;1.20;;
69906;SDS011;57190;47.918;8.112;2024-02-23T12:49:24;2.30;;;1.00;;
69906;SDS011;57190;47.918;8.112;2024-02-23T12:51:49;1.53;;;0.80;;
69906;SDS011;57190;47.918;8.112;2024-02-23T12:54:15;2.13;;;0.93;;
69906;SDS011;57190;47.918;8.112;2024-02-23T12:56:40;3.60;;;1.00;;
69906;SDS011;57190;47.918;8.112;2024-02-23T12:59:06;2.80;;;1.40;;
69906;SDS011;57190;47.918;8.112;2024-02-23T13:01:34;2.70;;;1.37;;
69906;SDS011;57190;47.918;8.112;2024-02-23T13:04:04;2.50;;;1.10;;
69906;SDS011;57190;47.918;8.112;2024-02-23T13:06:38;2.93;;;1.27;;
69906;SDS011;57190;47.918;8.112;2024-02-23T13:09:04;3.00;;;1.23;;
69906;SDS011;57190;47.918;8.112;2024-02-23T13:11:32;2.93;;;2.33;;
69906;SDS011;57190;47.918;8.112;2024-02-23T13:13:57;3.47;;;1.43;;
69906;SDS011;57190;47.918;8.112;2024-02-23T13:16:23;1.80;;;1.03;;
69906;SDS011;57190;47.918;8.112;2024-02-23T13:18:48;3.43;;;1.20;;
69906;SDS011;57190;47.918;8.112;2024-02-23T13:21:13;2.50;;;0.83;;
69906;SDS011;57190;47.918;8.112;2024-02-23T13:23:39;1.20;;;0.90;;
69906;SDS011;57190;47.918;8.112;2024-02-23T13:26:07;2.17;;;1.07;;
69906;SDS011;57190;47.918;8.112;2024-02-23T13:28:32;4.30;;;1.30;;
69906;SDS011;57190;47.918;8.112;2024-02-23T13:30:58;2.27;;;1.30;;
69906;SDS011;57190;47.918;8.112;2024-02-23T13:33:23;1.43;;;1.00;;
69906;SDS011;57190;47.918;8.112;2024-02-23T13:35:49;2.30;;;1.00;;
69906;SDS011;57190;47.918;8.112;2024-02-23T13:38:14;1.53;;;0.87;;
69906;SDS011;57190;47.918;8.112;2024-02-23T13:40:40;3.20;;;0.87;;
69906;SDS011;57190;47.918;8.112;2024-02-23T13:43:05;2.03;;;1.20;;
69906;SDS011;57190;47.918;8.112;2024-02-23T13:45:31;2.40;;;1.20;;
69906;SDS011;57190;47.918;8.112;2024-02-23T13:48:01;2.33;;;1.13;;
69906;SDS011;57190;47.918;8.112;2024-02-23T13:50:30;1.50;;;0.83;;
69906;SDS011;57190;47.918;8.112;2024-02-23T13:52:55;2.53;;;1.10;;
69906;SDS011;57190;47.918;8.112;2024-02-23T13:55:21;2.07;;;1.27;;
69906;SDS011;57190;47.918;8.112;2024-02-23T13:57:50;2.63;;;0.90;;
69906;SDS011;57190;47.918;8.112;2024-02-23T14:00:16;3.67;;;1.20;;
69906;SDS011;57190;47.918;8.112;2024-02-23T14:02:43;3.00;;;1.30;;
69906;SDS011;57190;47.918;8.112;2024-02-23T14:05:09;3.37;;;1.27;;
69906;SDS011;57190;47.918;8.112;2024-02-23T14:07:35;2.43;;;1.10;;
69906;SDS011;57190;47.918;8.112;2024-02-23T14:10:01;1.23;;;0.63;;
69906;SDS011;57190;47.918;8.112;2024-02-23T14:12:28;1.97;;;1.30;;
69906;SDS011;57190;47.918;8.112;2024-02-23T14:14:54;1.73;;;0.77;;
69906;SDS011;57190;47.918;8.112;2024-02-23T14:17:19;2.20;;;0.73;;
69906;SDS011;57190;47.918;8.112;2024-02-23T14:19:44;4.47;;;1.30;;
69906;SDS011;57190;47.918;8.112;2024-02-23T14:22:11;1.23;;;1.13;;
69906;SDS011;57190;47.918;8.112;2024-02-23T14:24:36;1.80;;;1.03;;
69906;SDS011;57190;47.918;8.112;2024-02-23T14:27:02;2.57;;;0.83;;
69906;SDS011;57190;47.918;8.112;2024-02-23T14:29:28;1.90;;;0.97;;
69906;SDS011;57190;47.918;8.112;2024-02-23T14:31:53;2.13;;;0.90;;
69906;SDS011;57190;47.918;8.112;2024-02-23T14:34:19;3.33;;;1.10;;
69906;SDS011;57190;47.918;8.112;2024-02-23T14:36:46;2.03;;;0.80;;
69906;SDS011;57190;47.918;8.112;2024-02-23T14:39:11;3.23;;;1.03;;
69906;SDS011;57190;47.918;8.112;2024-02-23T14:41:38;2.30;;;1.10;;